Time;durP1;ratioP1;P1;durP2;ratioP2;P2;SDS_P1;SDS_P2;PMS_P1;PMS_P2;Temp;Humidity;BMP_temperature;BMP_pressure;BME280_temperature;BME280_humidity;BME280_pressure;Samples;Min_cycle;Max_cycle;Signal;HPM_P1;HPM_P2
2022/05/06 00:00:04;;;;;;;;;;;;;;;5.01;76.84;100505.22;5054686;28;799;-54
2022/05/06 00:02:31;;;;;;;;;;;;;;;5.00;76.49;100498.97;5037090;28;950;-54
2022/05/06 00:04:57;;;;;;;;;;;;;;;5.02;76.46;100493.94;5054440;28;910;-55
2022/05/06 00:07:23;;;;;;;;;;;;;;;5.00;76.53;100495.44;5054503;28;918;-53
2022/05/06 00:09:50;;;;;;;;;;;;;;;4.94;76.41;100500.34;5054812;28;811;-56
2022/05/06 00:12:19;;;;;;;;;;;;;;;4.92;76.77;100491.69;5054366;28;846;-55
2022/05/06 00:14:46;;;;;;;;;;;;;;;4.89;76.75;100486.91;5054215;28;1894;-55
2022/05/06 00:17:13;;;;;;;;;;;;;;;4.93;76.42;100493.28;5054214;28;942;-55
2022/05/06 00:19:42;;;;;;;;;;;;;;;4.95;76.25;100488.25;5054259;28;877;-55
2022/05/06 00:22:09;;;;;;;;;;;;;;;4.95;76.21;100485.53;5054126;28;921;-54
2022/05/06 00:24:35;;;;;;;;;;;;;;;4.98;75.91;100493.03;5054105;28;926;-54
2022/05/06 00:27:03;;;;;;;;;;;;;;;4.97;75.95;100488.72;5054496;28;978;-55
2022/05/06 00:29:30;;;;;;;;;;;;;;;5.00;75.41;100479.78;5054046;28;999;-54
2022/05/06 00:31:56;;;;;;;;;;;;;;;5.04;75.36;100479.91;5054033;28;835;-55
2022/05/06 00:34:23;;;;;;;;;;;;;;;5.06;74.90;100481.13;5053900;28;1913;-54
2022/05/06 00:36:50;;;;;;;;;;;;;;;5.10;74.38;100482.03;5053902;28;929;-55
2022/05/06 00:39:17;;;;;;;;;;;;;;;5.13;73.84;100486.00;5053747;28;1462;-55
2022/05/06 00:41:44;;;;;;;;;;;;;;;5.25;73.27;100485.19;5053768;28;846;-55
2022/05/06 00:44:11;;;;;;;;;;;;;;;5.34;73.24;100488.56;5036012;28;858;-55
2022/05/06 00:46:38;;;;;;;;;;;;;;;5.41;72.62;100488.72;5053831;28;826;-55
2022/05/06 00:49:06;;;;;;;;;;;;;;;5.46;72.17;100482.19;5053623;28;937;-54
2022/05/06 00:51:34;;;;;;;;;;;;;;;5.43;72.37;100478.22;5035815;28;827;-55
2022/05/06 00:54:00;;;;;;;;;;;;;;;5.44;71.67;100473.53;5053562;28;882;-55
2022/05/06 00:56:27;;;;;;;;;;;;;;;5.44;71.47;100477.09;5053499;28;1906;-54
2022/05/06 00:58:53;;;;;;;;;;;;;;;5.45;71.23;100472.38;5052475;28;821;-54
2022/05/06 01:01:20;;;;;;;;;;;;;;;5.45;71.48;100472.38;5053389;28;901;-55
2022/05/06 01:03:48;;;;;;;;;;;;;;;5.45;71.75;100475.13;5053544;28;970;-55
2022/05/06 01:06:15;;;;;;;;;;;;;;;5.41;71.12;100468.75;5053438;28;865;-55
2022/05/06 01:08:42;;;;;;;;;;;;;;;5.35;71.80;100473.69;5053473;28;886;-55
2022/05/06 01:11:11;;;;;;;;;;;;;;;5.30;71.65;100472.00;5035292;28;1310;-54
2022/05/06 01:13:39;;;;;;;;;;;;;;;5.27;72.46;100464.50;5053250;28;1016;-55
2022/05/06 01:16:06;;;;;;;;;;;;;;;5.28;72.21;100462.53;5053061;28;1889;-53
2022/05/06 01:18:33;;;;;;;;;;;;;;;5.29;72.33;100469.59;5053054;28;863;-55
2022/05/06 01:21:02;;;;;;;;;;;;;;;5.35;72.57;100468.19;5053155;28;827;-54
2022/05/06 01:23:29;;;;;;;;;;;;;;;5.43;71.92;100461.75;5035394;28;838;-55
2022/05/06 01:25:55;;;;;;;;;;;;;;;5.42;72.14;100462.94;5053087;28;927;-54
2022/05/06 01:28:23;;;;;;;;;;;;;;;5.42;71.93;100470.34;5052986;28;903;-54
2022/05/06 01:30:50;;;;;;;;;;;;;;;5.40;71.52;100465.22;5052881;28;949;-54
2022/05/06 01:33:18;;;;;;;;;;;;;;;5.43;71.55;100466.47;5052935;28;950;-55
2022/05/06 01:35:51;;;;;;;;;;;;;;;5.45;71.49;100467.69;5052657;28;1894;-54
2022/05/06 01:38:31;;;;;;;;;;;;;;;5.39;72.21;100465.56;5052491;28;1221;-55
2022/05/06 01:41:04;;;;;;;;;;;;;;;5.32;72.21;100468.91;5052546;28;914;-54
2022/05/06 01:43:38;;;;;;;;;;;;;;;5.19;73.22;100465.44;5052636;28;802;-54
2022/05/06 01:46:06;;;;;;;;;;;;;;;5.07;73.98;100462.75;5052614;28;949;-55
2022/05/06 01:48:35;;;;;;;;;;;;;;;5.00;74.52;100466.09;5052424;28;906;-55
2022/05/06 01:51:01;;;;;;;;;;;;;;;4.92;75.10;100469.75;5034749;28;848;-55
2022/05/06 01:53:28;;;;;;;;;;;;;;;4.88;75.09;100461.44;5052360;28;902;-55
2022/05/06 01:55:55;;;;;;;;;;;;;;;4.84;75.01;100459.75;5052328;28;1964;-55
2022/05/06 01:58:22;;;;;;;;;;;;;;;4.82;75.14;100459.28;5052693;28;930;-55
2022/05/06 02:00:48;;;;;;;;;;;;;;;4.82;75.11;100460.13;5052363;28;838;-55
2022/05/06 02:06:00;;;;;;;;;;;;;;;4.69;75.02;100461.28;5052570;28;711;-54
2022/05/06 02:08:27;;;;;;;;;;;;;;;4.67;75.34;100460.81;5052514;28;799;-55
2022/05/06 02:10:53;;;;;;;;;;;;;;;4.67;75.53;100456.16;5052065;28;839;-54
2022/05/06 02:13:19;;;;;;;;;;;;;;;4.70;75.37;100457.41;5052543;28;818;-55
2022/05/06 02:15:46;;;;;;;;;;;;;;;4.59;75.66;100451.63;5052202;28;1885;-56
2022/05/06 02:18:14;;;;;;;;;;;;;;;4.37;75.95;100452.88;5052082;28;882;-56
2022/05/06 02:20:40;;;;;;;;;;;;;;;4.14;76.77;100449.84;5052114;28;826;-55
2022/05/06 02:23:08;;;;;;;;;;;;;;;3.95;77.59;100463.28;5052278;28;838;-56
2022/05/06 02:25:36;;;;;;;;;;;;;;;3.76;77.64;100453.72;5052360;28;935;-55
2022/05/06 02:28:03;;;;;;;;;;;;;;;3.72;78.51;100463.75;5052419;28;881;-56
2022/05/06 02:33:15;;;;;;;;;;;;;;;3.87;78.52;100465.00;5052171;28;633;-55
2022/05/06 02:35:43;;;;;;;;;;;;;;;4.09;78.26;100458.28;5051664;28;1936;-55
2022/05/06 02:38:10;;;;;;;;;;;;;;;4.04;77.98;100464.00;5051488;28;1373;-55
2022/05/06 02:40:37;;;;;;;;;;;;;;;3.76;78.33;100456.47;5051857;28;818;-55
2022/05/06 02:43:05;;;;;;;;;;;;;;;3.52;79.20;100465.44;5051727;28;862;-55
2022/05/06 02:45:32;;;;;;;;;;;;;;;3.46;79.77;100462.09;5051885;28;869;-55
2022/05/06 02:47:59;;;;;;;;;;;;;;;3.58;80.07;100461.31;5052321;28;823;-56
2022/05/06 02:50:26;;;;;;;;;;;;;;;3.67;79.93;100466.72;5051978;28;826;-56
2022/05/06 02:52:52;;;;;;;;;;;;;;;3.73;79.47;100465.31;5051791;28;850;-56
2022/05/06 02:55:19;;;;;;;;;;;;;;;3.87;79.44;100471.28;5051489;28;1910;-56
2022/05/06 02:57:46;;;;;;;;;;;;;;;3.99;78.91;100473.22;5051480;28;810;-55
2022/05/06 03:00:13;;;;;;;;;;;;;;;4.07;78.87;100482.44;5051548;28;827;-56
2022/05/06 03:02:40;;;;;;;;;;;;;;;4.07;79.08;100490.66;5051409;28;862;-56
2022/05/06 03:05:07;;;;;;;;;;;;;;;4.05;79.32;100479.25;5051416;28;842;-56
2022/05/06 03:07:34;;;;;;;;;;;;;;;4.05;79.28;100484.72;5051590;28;823;-57
2022/05/06 03:10:00;;;;;;;;;;;;;;;4.01;79.70;100486.53;5051307;28;921;-56
2022/05/06 03:12:29;;;;;;;;;;;;;;;3.96;79.38;100487.56;5051351;28;838;-56
2022/05/06 03:14:56;;;;;;;;;;;;;;;3.90;79.62;100486.19;5052050;28;1957;-57
2022/05/06 03:17:23;;;;;;;;;;;;;;;3.83;79.69;100491.44;5051930;28;849;-56
2022/05/06 03:19:50;;;;;;;;;;;;;;;3.84;80.05;100490.28;5051797;28;954;-56
2022/05/06 03:22:17;;;;;;;;;;;;;;;3.84;80.23;100491.09;5054125;28;861;-55
2022/05/06 03:24:44;;;;;;;;;;;;;;;3.87;80.00;100492.34;5037314;28;1156;-56
2022/05/06 03:30:00;;;;;;;;;;;;;;;3.72;80.82;100485.63;5055723;28;688;-56
2022/05/06 03:32:31;;;;;;;;;;;;;;;3.68;81.25;100490.94;5055315;28;886;-56
2022/05/06 03:34:58;;;;;;;;;;;;;;;3.74;81.47;100490.75;5037170;28;2109;-56
2022/05/06 03:37:26;;;;;;;;;;;;;;;3.73;81.58;100489.13;5055171;28;877;-56
2022/05/06 03:39:52;;;;;;;;;;;;;;;3.79;82.31;100490.53;5054850;28;1288;-56
2022/05/06 03:42:19;;;;;;;;;;;;;;;4.13;81.94;100488.50;5055080;28;872;-55
2022/05/06 03:44:44;;;;;;;;;;;;;;;4.51;80.87;100485.38;5054989;28;865;-55
2022/05/06 03:47:11;;;;;;;;;;;;;;;4.84;80.23;100487.94;5054961;28;882;-55
2022/05/06 03:49:37;;;;;;;;;;;;;;;5.11;79.12;100485.56;5055150;28;903;-55
2022/05/06 03:52:04;;;;;;;;;;;;;;;5.32;78.77;100496.31;5055033;28;866;-56
2022/05/06 03:54:31;;;;;;;;;;;;;;;5.49;77.54;100496.00;5054898;28;1961;-56
2022/05/06 03:56:58;;;;;;;;;;;;;;;5.67;77.30;100495.69;5054919;28;811;-55
2022/05/06 03:59:24;;;;;;;;;;;;;;;5.85;77.06;100496.16;5054771;28;835;-55
2022/05/06 04:01:51;;;;;;;;;;;;;;;6.10;76.34;100502.25;5054910;28;874;-54
2022/05/06 04:04:18;;;;;;;;;;;;;;;6.39;76.48;100502.94;5054855;28;560;-55
2022/05/06 04:06:47;;;;;;;;;;;;;;;6.62;75.56;100500.34;5054909;28;902;-55
2022/05/06 04:09:14;;;;;;;;;;;;;;;6.86;75.13;100499.28;5054546;28;826;-55
2022/05/06 04:11:40;;;;;;;;;;;;;;;7.10;72.38;100504.50;5054532;28;818;-55
2022/05/06 04:14:09;;;;;;;;;;;;;;;7.30;71.70;100497.03;5054860;28;869;-55
2022/05/06 04:16:36;;;;;;;;;;;;;;;7.48;69.55;100499.34;5054169;28;1918;-55
2022/05/06 04:19:03;;;;;;;;;;;;;;;7.59;69.86;100500.31;5054369;28;1034;-55
2022/05/06 04:24:15;;;;;;;;;;;;;;;7.85;69.67;100499.63;5054836;28;713;-54
2022/05/06 04:26:42;;;;;;;;;;;;;;;7.96;68.80;100499.81;5054846;28;982;-54
2022/05/06 04:29:09;;;;;;;;;;;;;;;7.96;68.22;100502.56;5054712;28;802;-54
2022/05/06 04:31:36;;;;;;;;;;;;;;;7.97;67.54;100504.13;5054336;28;827;-55
2022/05/06 04:34:02;;;;;;;;;;;;;;;8.05;67.40;100510.56;5054197;28;890;-55
2022/05/06 04:36:28;;;;;;;;;;;;;;;8.12;66.55;100514.22;5054363;28;1889;-55
2022/05/06 04:38:55;;;;;;;;;;;;;;;8.19;66.93;100510.78;5053588;28;1472;-55
2022/05/06 04:41:22;;;;;;;;;;;;;;;8.34;65.45;100515.38;5053890;28;846;-53
2022/05/06 04:43:49;;;;;;;;;;;;;;;8.55;65.53;100514.13;5054152;28;802;-55
2022/05/06 04:46:16;;;;;;;;;;;;;;;8.84;65.58;100514.53;5053841;28;874;-55
2022/05/06 04:48:43;;;;;;;;;;;;;;;9.10;64.40;100521.97;5053653;28;886;-55
2022/05/06 04:51:10;;;;;;;;;;;;;;;9.30;63.50;100515.13;5053579;28;951;-54
2022/05/06 04:53:37;;;;;;;;;;;;;;;9.52;63.16;100509.84;5053843;28;870;-54
2022/05/06 04:56:03;;;;;;;;;;;;;;;9.73;62.65;100512.81;5053372;28;1906;-55
2022/05/06 04:58:30;;;;;;;;;;;;;;;9.95;61.80;100511.03;5053644;28;799;-54
2022/05/06 05:00:57;;;;;;;;;;;;;;;10.17;61.64;100509.25;5053551;28;826;-54
2022/05/06 05:03:23;;;;;;;;;;;;;;;10.45;60.87;100518.94;5053534;28;795;-55
2022/05/06 05:05:50;;;;;;;;;;;;;;;10.70;60.26;100519.13;5053735;28;1076;-54
2022/05/06 05:08:17;;;;;;;;;;;;;;;11.06;58.23;100522.09;5053567;28;846;-54
2022/05/06 05:10:43;;;;;;;;;;;;;;;11.59;55.96;100527.00;5053529;28;858;-53
2022/05/06 05:13:10;;;;;;;;;;;;;;;12.30;54.38;100516.44;5053344;28;921;-52
2022/05/06 05:15:37;;;;;;;;;;;;;;;12.91;52.88;100525.44;5053061;28;1890;-54
2022/05/06 05:18:04;;;;;;;;;;;;;;;13.47;50.51;100523.66;5053247;28;877;-53
2022/05/06 05:20:32;;;;;;;;;;;;;;;13.48;52.13;100527.19;5053109;28;933;-51
2022/05/06 05:22:59;;;;;;;;;;;;;;;13.50;51.21;100527.59;5052972;28;938;-55
2022/05/06 05:25:26;;;;;;;;;;;;;;;13.57;52.08;100530.34;5053077;28;1086;-55
2022/05/06 05:27:52;;;;;;;;;;;;;;;13.78;50.83;100521.06;5052937;28;914;-54
2022/05/06 05:30:19;;;;;;;;;;;;;;;13.88;50.19;100525.78;5052947;28;862;-55
2022/05/06 05:32:46;;;;;;;;;;;;;;;13.66;51.50;100527.91;5052960;28;882;-53
2022/05/06 05:35:12;;;;;;;;;;;;;;;13.88;51.15;100523.00;5052838;28;1894;-55
2022/05/06 05:37:38;;;;;;;;;;;;;;;14.55;49.16;100522.03;5052721;28;858;-55
2022/05/06 05:40:06;;;;;;;;;;;;;;;15.99;45.83;100529.47;5032875;28;795;-55
2022/05/06 05:42:32;;;;;;;;;;;;;;;17.74;41.64;100512.16;5032680;28;918;-56
2022/05/06 05:50:30;;;;;;;;;;;;;;;21.79;34.52;100504.38;5032677;28;688;-56
2022/05/06 05:52:58;;;;;;;;;;;;;;;21.84;33.52;100513.47;5032474;28;871;-56
2022/05/06 05:55:24;;;;;;;;;;;;;;;21.65;33.20;100504.94;5032616;28;2050;-55
2022/05/06 05:57:51;;;;;;;;;;;;;;;21.70;33.31;100512.00;5032453;28;907;-56
2022/05/06 06:00:18;;;;;;;;;;;;;;;22.02;33.20;100510.72;5032615;28;930;-55
2022/05/06 06:02:45;;;;;;;;;;;;;;;22.24;31.86;100513.44;5032506;28;823;-55
2022/05/06 06:05:12;;;;;;;;;;;;;;;22.53;32.93;100512.22;5032623;28;827;-55
2022/05/06 06:07:39;;;;;;;;;;;;;;;23.10;31.95;100504.09;5032286;28;942;-54
2022/05/06 06:10:06;;;;;;;;;;;;;;;23.52;31.20;100506.19;5032188;28;915;-55
2022/05/06 06:12:33;;;;;;;;;;;;;;;23.39;31.66;100511.25;5032215;28;811;-56
2022/05/06 06:15:00;;;;;;;;;;;;;;;23.42;31.29;100510.28;5032028;28;1894;-54
2022/05/06 06:17:28;;;;;;;;;;;;;;;23.55;30.44;100508.03;5032140;28;830;-56
2022/05/06 06:19:55;;;;;;;;;;;;;;;23.88;31.18;100512.97;5032059;28;927;-56
2022/05/06 06:22:22;;;;;;;;;;;;;;;24.39;30.92;100511.25;5031928;28;926;-56
2022/05/06 06:24:49;;;;;;;;;;;;;;;24.47;30.48;100512.41;5032062;28;1151;-56
2022/05/06 06:27:17;;;;;;;;;;;;;;;24.54;30.73;100514.94;5032043;28;874;-55
2022/05/06 06:29:44;;;;;;;;;;;;;;;24.55;30.31;100518.53;5031855;28;940;-55
2022/05/06 06:32:10;;;;;;;;;;;;;;;24.93;30.25;100525.44;5031919;28;1255;-55
2022/05/06 06:34:37;;;;;;;;;;;;;;;25.22;29.89;100524.69;5031753;28;1886;-55
2022/05/06 06:37:05;;;;;;;;;;;;;;;25.07;30.63;100524.66;5031678;28;881;-55
2022/05/06 06:39:31;;;;;;;;;;;;;;;25.11;30.24;100511.09;5046897;28;1252;-55
2022/05/06 06:41:58;;;;;;;;;;;;;;;25.12;28.97;100521.16;5051874;28;823;-55
2022/05/06 06:44:25;;;;;;;;;;;;;;;25.07;28.75;100519.00;5051591;28;891;-55
2022/05/06 06:46:53;;;;;;;;;;;;;;;25.50;28.99;100521.56;5051479;28;921;-55
2022/05/06 06:49:20;;;;;;;;;;;;;;;25.83;29.83;100513.63;5051535;28;942;-55
2022/05/06 06:51:47;;;;;;;;;;;;;;;26.14;29.17;100509.47;5051518;28;822;-56
2022/05/06 06:54:13;;;;;;;;;;;;;;;26.18;28.53;100514.91;5051482;28;874;-56
2022/05/06 06:56:41;;;;;;;;;;;;;;;26.44;28.75;100515.00;5050550;28;1969;-56
2022/05/06 06:59:08;;;;;;;;;;;;;;;26.75;28.48;100513.56;5051405;28;874;-55
2022/05/06 07:01:35;;;;;;;;;;;;;;;26.71;28.73;100513.78;5051467;28;858;-56
2022/05/06 07:04:02;;;;;;;;;;;;;;;27.06;28.27;100512.88;5051414;28;898;-55
2022/05/06 07:11:58;;;;;;;;;;;;;;;28.58;27.32;100508.28;5051429;28;649;-56
2022/05/06 07:14:28;;;;;;;;;;;;;;;28.67;25.89;100513.75;5051382;28;807;-56
2022/05/06 07:16:55;;;;;;;;;;;;;;;28.57;25.52;100518.13;5051175;28;1885;-57
2022/05/06 07:19:23;;;;;;;;;;;;;;;28.24;26.04;100522.31;5051129;28;854;-56
2022/05/06 07:21:52;;;;;;;;;;;;;;;28.34;25.33;100520.06;5051161;28;882;-56
2022/05/06 07:24:19;;;;;;;;;;;;;;;28.13;25.38;100524.34;5051275;28;889;-56
2022/05/06 07:26:46;;;;;;;;;;;;;;;28.06;25.89;100520.69;5051506;28;938;-56
2022/05/06 07:29:13;;;;;;;;;;;;;;;27.92;22.84;100518.00;5051261;28;849;-56
2022/05/06 07:31:43;;;;;;;;;;;;;;;28.15;23.46;100507.56;5051343;28;927;-56
2022/05/06 07:34:11;;;;;;;;;;;;;;;28.40;22.72;100520.88;5051059;28;863;-56
2022/05/06 07:36:42;;;;;;;;;;;;;;;28.07;22.88;100516.56;5050905;28;1882;-58
2022/05/06 07:39:13;;;;;;;;;;;;;;;27.61;24.01;100520.38;5050690;28;1682;-57
2022/05/06 07:41:40;;;;;;;;;;;;;;;27.89;25.39;100517.75;5051099;28;832;-56
2022/05/06 07:44:07;;;;;;;;;;;;;;;27.84;24.44;100504.25;5051154;28;938;-54
2022/05/06 07:46:34;;;;;;;;;;;;;;;28.08;24.06;100523.81;5051309;28;823;-54
2022/05/06 07:49:01;;;;;;;;;;;;;;;28.50;23.40;100510.84;5051247;28;892;-55
2022/05/06 07:51:28;;;;;;;;;;;;;;;27.79;22.70;100524.88;5051062;28;847;-56
2022/05/06 07:53:55;;;;;;;;;;;;;;;27.29;23.24;100528.88;5033380;28;854;-56
2022/05/06 07:56:23;;;;;;;;;;;;;;;27.90;23.17;100529.88;5051196;28;1922;-55
2022/05/06 07:58:51;;;;;;;;;;;;;;;28.62;22.43;100525.13;5050907;28;925;-56
2022/05/06 08:01:18;;;;;;;;;;;;;;;28.29;22.07;100532.97;5050701;28;926;-56
2022/05/06 08:06:30;;;;;;;;;;;;;;;27.53;22.35;100539.13;5051084;28;719;-56
2022/05/06 08:08:57;;;;;;;;;;;;;;;27.02;21.99;100529.34;5054448;28;851;-56
2022/05/06 08:11:24;;;;;;;;;;;;;;;26.75;23.33;100527.75;5054868;28;854;-56
2022/05/06 08:13:52;;;;;;;;;;;;;;;26.31;22.70;100531.56;5054572;28;901;-56
2022/05/06 08:16:19;;;;;;;;;;;;;;;25.98;22.87;100529.81;5054419;28;1890;-56
2022/05/06 08:18:46;;;;;;;;;;;;;;;26.02;23.27;100544.56;5054528;28;850;-56
2022/05/06 08:21:13;;;;;;;;;;;;;;;26.36;22.56;100536.53;5054409;28;864;-55
2022/05/06 08:23:38;;;;;;;;;;;;;;;26.70;21.51;100528.47;5054614;28;815;-55
2022/05/06 08:26:05;;;;;;;;;;;;;;;26.77;22.85;100528.03;5054627;28;1028;-56
2022/05/06 08:28:32;;;;;;;;;;;;;;;26.59;22.24;100540.47;5054569;28;1116;-56
2022/05/06 08:30:59;;;;;;;;;;;;;;;26.40;22.70;100531.44;5054212;28;823;-55
2022/05/06 08:33:26;;;;;;;;;;;;;;;25.88;21.75;100531.94;5054509;28;882;-56
2022/05/06 08:35:54;;;;;;;;;;;;;;;26.27;22.62;100526.88;5054653;28;1890;-56
2022/05/06 08:38:21;;;;;;;;;;;;;;;26.40;21.46;100520.88;5048829;28;1275;-56
2022/05/06 08:40:49;;;;;;;;;;;;;;;26.39;23.04;100521.34;5034316;28;890;-56
2022/05/06 08:43:16;;;;;;;;;;;;;;;25.94;22.35;100492.44;5034031;28;868;-56
2022/05/06 08:51:44;;;;;;;;;;;;;;;25.76;23.40;100521.75;5033913;28;620;-56
2022/05/06 08:54:12;;;;;;;;;;;;;;;25.60;23.65;100525.84;5033852;28;869;-55
2022/05/06 08:56:38;;;;;;;;;;;;;;;25.66;22.47;100535.22;5033614;28;1913;-53
2022/05/06 08:59:05;;;;;;;;;;;;;;;24.93;22.55;100522.63;5033728;28;857;-55
2022/05/06 09:13:52;;;;;;;;;;;;;;;23.89;25.00;100519.38;5034027;28;677;-56
2022/05/06 09:28:32;;;;;;;;;;;;;;;24.06;23.72;100517.72;5033454;28;621;-56
2022/05/06 09:31:06;;;;;;;;;;;;;;;23.94;25.65;100513.06;5033001;28;950;-56
2022/05/06 09:33:36;;;;;;;;;;;;;;;23.90;24.75;100515.28;5032826;28;966;-56
2022/05/06 09:36:26;;;;;;;;;;;;;;;23.63;22.21;100516.94;5015071;28;1902;-57
2022/05/06 09:39:10;;;;;;;;;;;;;;;23.23;23.54;100510.31;5042013;28;1261;-55
2022/05/06 09:41:38;;;;;;;;;;;;;;;22.60;23.01;100507.06;5052699;28;858;-56
2022/05/06 09:44:06;;;;;;;;;;;;;;;22.26;23.00;100513.78;5052681;28;883;-55
2022/05/06 09:46:32;;;;;;;;;;;;;;;21.94;24.41;100510.22;5052770;28;798;-55
2022/05/06 09:49:00;;;;;;;;;;;;;;;21.75;23.72;100511.41;5034803;28;1187;-56
2022/05/06 09:51:28;;;;;;;;;;;;;;;21.97;24.31;100502.88;5052544;28;865;-56
2022/05/06 09:53:55;;;;;;;;;;;;;;;22.18;22.75;100509.66;5052455;28;870;-55
2022/05/06 09:56:22;;;;;;;;;;;;;;;22.59;24.34;100504.72;5052670;28;1977;-54
2022/05/06 10:32:25;;;;;;;;;;;;;;;23.30;25.49;100481.03;5071585;22;1926;-57
2022/05/06 10:33:15;;;;;;;;;;;;;;;23.99;23.17;100470.84;5071957;28;719;-55
2022/05/06 10:35:43;;;;;;;;;;;;;;;23.48;23.46;100477.34;5071746;28;1969;-54
2022/05/06 10:38:17;;;;;;;;;;;;;;;23.49;25.58;100456.34;5071828;28;912;-56
2022/05/06 10:40:52;;;;;;;;;;;;;;;23.00;25.70;100477.97;5071793;28;849;-56
2022/05/06 10:43:37;;;;;;;;;;;;;;;23.01;24.63;100473.09;5071599;28;1002;-56
2022/05/06 10:46:04;;;;;;;;;;;;;;;23.40;25.83;100468.44;5072008;28;818;-56
2022/05/06 10:48:31;;;;;;;;;;;;;;;23.46;23.30;100448.84;5071740;28;880;-56
2022/05/06 10:51:18;;;;;;;;;;;;;;;23.70;24.25;100457.34;5071666;28;817;-56
2022/05/06 10:53:44;;;;;;;;;;;;;;;23.63;23.25;100457.69;5071495;28;1367;-56
2022/05/06 10:56:44;;;;;;;;;;;;;;;23.29;23.47;100454.06;5071444;28;1886;-56
2022/05/06 10:59:11;;;;;;;;;;;;;;;23.34;24.95;100461.91;5071445;28;930;-57
2022/05/06 11:01:37;;;;;;;;;;;;;;;23.60;25.28;100456.63;5071542;28;853;-57
2022/05/06 11:04:04;;;;;;;;;;;;;;;23.97;23.80;100458.50;5071542;28;818;-56
2022/05/06 11:06:31;;;;;;;;;;;;;;;23.95;22.74;100449.72;5053572;28;935;-57
2022/05/06 11:08:58;;;;;;;;;;;;;;;23.88;23.29;100447.25;5071524;28;809;-56
2022/05/06 11:11:25;;;;;;;;;;;;;;;24.09;22.98;100446.19;5071460;28;1027;-56
2022/05/06 11:13:53;;;;;;;;;;;;;;;24.13;22.82;100446.78;5071385;28;814;-56
2022/05/06 11:16:20;;;;;;;;;;;;;;;24.20;23.84;100445.63;5053374;28;1889;-57
2022/05/06 11:18:48;;;;;;;;;;;;;;;24.32;23.57;100441.75;5053937;28;861;-56
2022/05/06 11:21:24;;;;;;;;;;;;;;;24.23;22.90;100436.97;5071359;28;860;-56
2022/05/06 11:23:53;;;;;;;;;;;;;;;24.43;23.38;100438.38;5071235;28;894;-56
2022/05/06 11:26:26;;;;;;;;;;;;;;;24.93;22.95;100432.91;5071100;28;1375;-56
2022/05/06 11:29:03;;;;;;;;;;;;;;;25.00;23.46;100426.84;5071375;28;905;-56
2022/05/06 11:31:29;;;;;;;;;;;;;;;25.04;24.91;100430.28;5071178;28;911;-57
2022/05/06 11:33:59;;;;;;;;;;;;;;;25.28;23.15;100418.09;5071204;28;1032;-55
2022/05/06 11:36:25;;;;;;;;;;;;;;;25.16;22.20;100431.25;5053320;28;1973;-57
2022/05/06 11:38:52;;;;;;;;;;;;;;;25.12;23.56;100436.31;5071198;28;798;-57
2022/05/06 11:41:19;;;;;;;;;;;;;;;25.13;23.72;100414.47;5071167;28;923;-57
2022/05/06 11:43:46;;;;;;;;;;;;;;;24.70;23.82;100394.22;5074495;28;822;-57
2022/05/06 11:49:26;;;;;;;;;;;;;;;23.99;24.24;100411.56;5074951;28;1247;-57
2022/05/06 11:51:55;;;;;;;;;;;;;;;23.72;25.13;100420.19;5074887;28;813;-57
2022/05/06 11:54:22;;;;;;;;;;;;;;;23.77;27.23;100414.69;5074701;28;946;-55
2022/05/06 11:56:50;;;;;;;;;;;;;;;23.59;27.25;100418.34;5074769;28;1945;-57
2022/05/06 11:59:18;;;;;;;;;;;;;;;23.42;28.63;100386.16;5074833;28;920;-57
2022/05/06 12:14:04;;;;;;;;;;;;;;;22.76;29.33;100396.06;5074514;28;711;-57
2022/05/06 12:16:30;;;;;;;;;;;;;;;22.79;28.72;100397.19;5056551;28;1953;-55
2022/05/06 12:18:58;;;;;;;;;;;;;;;22.73;28.60;100410.34;5056523;28;1477;-56
2022/05/06 12:21:26;;;;;;;;;;;;;;;23.02;27.66;100410.63;5074327;28;1250;-56
2022/05/06 12:23:53;;;;;;;;;;;;;;;23.36;28.82;100400.13;5074285;28;841;-56
2022/05/06 12:26:30;;;;;;;;;;;;;;;23.59;27.37;100404.25;5074259;28;1209;-55
2022/05/06 12:28:58;;;;;;;;;;;;;;;23.65;27.70;100399.53;5074265;28;873;-56
2022/05/06 12:31:28;;;;;;;;;;;;;;;23.51;27.14;100410.72;5074155;28;933;-57
2022/05/06 12:34:02;;;;;;;;;;;;;;;23.23;27.44;100410.84;5056393;28;962;-54
2022/05/06 12:51:26;;;;;;;;;;;;;;;23.64;27.91;100397.16;5073854;28;699;-57
2022/05/06 12:53:52;;;;;;;;;;;;;;;23.07;28.23;100403.56;5072375;28;822;-56
2022/05/06 12:56:20;;;;;;;;;;;;;;;23.05;29.63;100400.44;5073663;28;1965;-55
2022/05/06 12:58:47;;;;;;;;;;;;;;;23.33;28.01;100406.75;5073546;28;941;-57
2022/05/06 13:01:13;;;;;;;;;;;;;;;23.14;29.10;100399.59;5073675;28;940;-56
2022/05/06 13:03:42;;;;;;;;;;;;;;;23.03;29.29;100400.88;5073510;28;869;-56
2022/05/06 13:06:09;;;;;;;;;;;;;;;22.87;29.51;100398.41;5074374;28;754;-56
2022/05/06 13:08:36;;;;;;;;;;;;;;;22.77;29.41;100405.34;5073830;28;842;-56
2022/05/06 13:11:02;;;;;;;;;;;;;;;22.35;31.52;100403.19;5073760;28;873;-55
2022/05/06 13:13:29;;;;;;;;;;;;;;;22.26;31.31;100400.38;5073398;28;848;-55
2022/05/06 13:15:56;;;;;;;;;;;;;;;22.12;30.87;100405.31;5073553;28;1947;-55
2022/05/06 13:18:23;;;;;;;;;;;;;;;21.88;31.17;100398.75;5073161;28;964;-56
2022/05/06 13:20:50;;;;;;;;;;;;;;;21.84;32.73;100398.09;5073227;28;846;-54
2022/05/06 13:23:16;;;;;;;;;;;;;;;22.09;31.97;100400.63;5073030;28;862;-56
2022/05/06 13:37:53;;;;;;;;;;;;;;;21.62;30.95;100379.31;5073289;28;609;-56
2022/05/06 13:43:23;;;;;;;;;;;;;;;21.04;31.14;100383.59;5072863;28;620;-55
2022/05/06 13:45:49;;;;;;;;;;;;;;;21.01;31.80;100381.69;5072768;28;853;-55
2022/05/06 13:48:16;;;;;;;;;;;;;;;21.13;32.08;100380.06;5072760;28;790;-55
2022/05/06 13:50:42;;;;;;;;;;;;;;;20.90;31.97;100382.13;5072569;28;925;-55
2022/05/06 13:53:09;;;;;;;;;;;;;;;20.60;32.70;100383.66;5072506;28;834;-54
2022/05/06 14:01:14;;;;;;;;;;;;;;;20.19;33.39;100389.09;5072797;28;664;-54
2022/05/06 14:06:43;;;;;;;;;;;;;;;20.23;32.63;100374.13;5072269;28;659;-54
2022/05/06 14:09:10;;;;;;;;;;;;;;;20.48;32.39;100376.81;5072563;28;1064;-54
2022/05/06 14:11:37;;;;;;;;;;;;;;;20.53;32.54;100369.84;5072736;28;876;-54
2022/05/06 14:14:04;;;;;;;;;;;;;;;20.28;32.10;100374.34;5072966;28;802;-56
2022/05/06 14:16:31;;;;;;;;;;;;;;;20.06;32.64;100387.59;5072323;28;1951;-55
2022/05/06 14:18:58;;;;;;;;;;;;;;;19.82;33.21;100387.19;5072411;28;822;-54
2022/05/06 14:21:25;;;;;;;;;;;;;;;19.75;33.79;100400.19;5072087;28;938;-54
2022/05/06 14:23:54;;;;;;;;;;;;;;;19.98;33.96;100396.22;5072405;28;821;-55
2022/05/06 14:26:21;;;;;;;;;;;;;;;19.97;33.92;100405.09;5071765;28;1198;-53
2022/05/06 14:40:59;;;;;;;;;;;;;;;19.57;34.42;100397.97;5071837;28;711;-53
2022/05/06 14:43:26;;;;;;;;;;;;;;;19.63;34.90;100394.59;5071810;28;837;-55
2022/05/06 14:45:53;;;;;;;;;;;;;;;19.54;35.00;100386.84;5071736;28;868;-55
2022/05/06 14:48:21;;;;;;;;;;;;;;;19.71;35.64;100393.16;5071777;28;897;-56
2022/05/06 14:50:47;;;;;;;;;;;;;;;19.80;35.50;100396.06;5071860;28;806;-56
2022/05/06 14:53:14;;;;;;;;;;;;;;;19.87;36.66;100390.19;5071810;28;861;-54
2022/05/06 14:55:42;;;;;;;;;;;;;;;19.85;37.45;100387.06;5071839;28;1952;-55
2022/05/06 14:58:08;;;;;;;;;;;;;;;19.91;36.57;100385.25;5071655;28;921;-54
2022/05/06 15:00:35;;;;;;;;;;;;;;;19.63;37.93;100372.97;5071775;28;885;-56
2022/05/06 15:03:03;;;;;;;;;;;;;;;19.64;37.25;100368.91;5071618;28;1138;-55
2022/05/06 15:05:30;;;;;;;;;;;;;;;19.54;37.68;100370.03;5072118;28;759;-55
2022/05/06 15:07:56;;;;;;;;;;;;;;;19.64;37.83;100382.94;5053506;28;1631;-53
2022/05/06 15:10:22;;;;;;;;;;;;;;;20.04;37.74;100393.63;5071753;28;814;-55
2022/05/06 15:12:49;;;;;;;;;;;;;;;19.93;37.26;100393.22;5053590;28;861;-55
2022/05/06 15:15:16;;;;;;;;;;;;;;;19.51;39.15;100384.97;5071274;28;1976;-56
2022/05/06 15:17:42;;;;;;;;;;;;;;;19.08;40.31;100383.53;5073173;28;917;-54
2022/05/06 15:20:10;;;;;;;;;;;;;;;18.65;41.79;100373.53;5075439;28;830;-56
2022/05/06 15:22:37;;;;;;;;;;;;;;;18.32;43.14;100368.09;5075465;28;889;-54
2022/05/06 15:25:08;;;;;;;;;;;;;;;17.96;44.34;100371.84;5075398;28;1007;-55
2022/05/06 15:27:34;;;;;;;;;;;;;;;17.60;45.38;100383.91;5075450;28;1248;-54
2022/05/06 15:30:02;;;;;;;;;;;;;;;17.37;46.17;100382.06;5075667;28;1113;-53
2022/05/06 15:32:28;;;;;;;;;;;;;;;17.27;47.74;100386.69;5075602;28;838;-52